Taquarussu, Brazil
Current Conditions -  °F | °C
As of 7:00 AM on Saturday 29 Nov 2014 (Local Time) from SBMG Reporting Station
Clear Clear  
Wind Chill: 72°   Ceiling: Unl
Heat Index: 72°   Visibility: 6mi
Dew Point: 61°   Wind: 14mph
Humidity: 69%   Direction: 100°E
Pressure: 30"   Gusts: NA
Location:  22.49°S, 53.35°W
Report Text: SBMG 291000Z 10012KT CAVOK 22/16 Q1016
Loading
Personal Weather Stations






























Interactive Weather Map New forecast layout! Learn more

10-Day Weather Forecast

Advertisements
Track Severe Weather on mobile